Flight Track Log - Related Links

Times and Time Zones

All times are in EDT time to prevent confusion due to time zone crossing. See the CJT574 flight status page for this flight to view local times or setup timezone preferences in your user account.

Time Position Orientation Groundspeed Altitude Reporting Facility
EDT Latitude Longitude Course Direction KTS MPH feet Rate Location/Type
Wed 11:47:31 PM 53.2833 -113.6333 329° Northwest 150 173 2,900  Level Edmonton Center
Wed 11:48:31 PM 53.3167 -113.6667 329° Northwest 190 219 4,700 1,400 Climbing Edmonton Center
Wed 11:49:31 PM 53.3500 -113.6167 42° Northeast 220 253 5,700 1,400 Climbing Edmonton Center
Wed 11:50:31 PM 53.3333 -113.5000 103° East 260 299 7,500 1,900 Climbing Edmonton Center
Wed 11:51:31 PM 53.3333 -113.3667 90° East 290 334 9,500 1,800 Climbing Edmonton Center
Wed 11:52:31 PM 53.3000 -113.2167 110° East 330 380 11,100 1,350 Climbing Edmonton Center
Wed 11:53:31 PM 53.3000 -113.0500 90° East 360 414 12,200 1,400 Climbing Edmonton Center
Wed 11:54:31 PM 53.2833 -112.8667 99° East 400 460 13,900 1,450 Climbing Edmonton Center
Wed 11:55:31 PM 53.2833 -112.6667 90° East 410 472 15,100 1,650 Climbing Edmonton Center
Wed 11:56:31 PM 53.2500 -112.5000 108° East 420 483 17,200 1,850 Climbing Edmonton Center
Wed 11:57:31 PM 53.2333 -112.2667 97° East 430 495 18,800 1,450 Climbing Edmonton Center
Wed 11:58:31 PM 53.2000 -112.0833 107° East 440 506 20,100 1,450 Climbing Edmonton Center
Wed 11:59:31 PM 53.1500 -111.8833 113° Southeast 440 506 21,700 1,400 Climbing Edmonton Center
Thu 12:00:31 AM 53.1167 -111.6833 105° East 450 518 22,900 1,100 Climbing Edmonton Center
Thu 12:01:31 AM 53.0833 -111.4667 104° East 460 529 23,900 1,200 Climbing Edmonton Center
Thu 12:02:31 AM 53.0333 -111.2667 113° Southeast 470 541 25,300 1,100 Climbing Edmonton Center
Thu 12:03:31 AM 53.0000 -111.0333 103° East 480 552 26,100 1,000 Climbing Edmonton Center
Thu 12:04:31 AM 52.9667 -110.8333 105° East 480 552 27,300 1,150 Climbing Edmonton Center
Thu 12:05:31 AM 52.9000 -110.6333 119° Southeast 490 564 28,400 1,000 Climbing Edmonton Center
Thu 12:06:31 AM 52.8833 -110.4000 97° East 490 564 29,300 950 Climbing Edmonton Center
Thu 12:07:31 AM 52.8333 -110.2000 112° Southeast 490 564 30,300 1,135 Climbing Edmonton Center
Thu 12:08:22 AM 52.8167 -110.0333 99° East 490 564 31,400 919 Climbing Winnipeg Center
Thu 12:09:22 AM 52.7833 -109.8000 103° East 490 564 32,000 550 Climbing Winnipeg Center
Thu 12:10:22 AM 52.7333 -109.6000 112° Southeast 500 575 32,500 450 Climbing Winnipeg Center
Thu 12:11:22 AM 52.7000 -109.3833 104° East 500 575 32,900 250 Climbing Winnipeg Center
Thu 12:12:22 AM 52.6500 -109.1500 109° East 500 575 33,000 50 Climbing Winnipeg Center
Thu 12:13:22 AM 52.6000 -108.9333 111° Southeast 500 575 33,000  Level Winnipeg Center
Thu 12:14:22 AM 52.5667 -108.7000 103° East 500 575 33,000  Level Winnipeg Center
Thu 12:15:22 AM 52.5333 -108.5333 108° East 490 564 33,000  Level Winnipeg Center
Thu 12:16:22 AM 52.4833 -108.3000 109° East 480 552 33,000  Level Winnipeg Center
Thu 12:17:22 AM 52.4333 -108.0833 111° Southeast 490 564 33,000  Level Winnipeg Center
Thu 12:18:22 AM 52.3833 -107.8833 112° Southeast 490 564 33,000  Level Winnipeg Center
Thu 12:19:22 AM 52.3500 -107.6833 105° East 490 564 33,000  Level Winnipeg Center
Thu 12:20:22 AM 52.3000 -107.4833 112° Southeast 480 552 33,000  Level Winnipeg Center
Thu 12:21:22 AM 52.2667 -107.2500 103° East 490 564 33,000  Level Winnipeg Center
Thu 12:22:22 AM 52.2333 -107.0500 105° East 480 552 33,000  Level Winnipeg Center
Thu 12:23:22 AM 52.1833 -106.8167 109° East 500 575 33,000  Level Winnipeg Center
Thu 12:24:22 AM 52.1333 -106.6167 112° Southeast 490 564 33,000  Level Winnipeg Center
Thu 12:25:22 AM 52.1000 -106.4167 105° East 500 575 33,000  Level Winnipeg Center
Thu 12:26:22 AM 52.0500 -106.1833 109° East 500 575 33,000  Level Winnipeg Center
Thu 12:27:22 AM 52.0167 -105.9833 105° East 500 575 33,000  Level Winnipeg Center
Thu 12:28:22 AM 51.9667 -105.7500 109° East 510 587 33,000  Level Winnipeg Center
Thu 12:29:22 AM 51.9333 -105.5500 105° East 510 587 33,000  Level Winnipeg Center
Thu 12:30:22 AM 51.8667 -105.3333 116° Southeast 510 587 33,000  Level Winnipeg Center
Thu 12:31:22 AM 51.8167 -105.1000 109° East 510 587 33,000  Level Winnipeg Center
Thu 12:32:22 AM 51.7833 -104.8833 104° East 510 587 33,000  Level Winnipeg Center
Thu 12:33:22 AM 51.7333 -104.6833 112° Southeast 500 575 33,000  Level Winnipeg Center
Thu 12:34:22 AM 51.7000 -104.4833 105° East 500 575 33,000  Level Winnipeg Center
Thu 12:35:22 AM 51.6500 -104.2500 109° East 500 575 33,000  Level Winnipeg Center
Thu 12:36:22 AM 51.6000 -104.0333 110° East 500 575 33,000  Level Winnipeg Center
Thu 12:37:22 AM 51.5500 -103.8167 110° East 500 575 33,000  Level Winnipeg Center
Thu 12:38:22 AM 51.5167 -103.6167 105° East 500 575 33,000  Level Winnipeg Center
Thu 12:39:22 AM 51.4667 -103.3833 109° East 500 575 33,000  Level Winnipeg Center
Thu 12:40:22 AM 51.4000 -103.2000 120° Southeast 500 575 33,000  Level Winnipeg Center
Thu 12:41:22 AM 51.3667 -102.9667 103° East 500 575 33,000  Level Winnipeg Center
Thu 12:42:22 AM 51.3000 -102.7833 120° Southeast 500 575 33,000  Level Winnipeg Center
Thu 12:43:22 AM 51.2667 -102.5667 104° East 500 575 33,000  Level Winnipeg Center
Thu 12:44:22 AM 51.2167 -102.3333 109° East 510 587 33,000  Level Winnipeg Center
Thu 12:45:22 AM 51.1667 -102.1167 110° East 510 587 33,000  Level Winnipeg Center
Thu 12:46:22 AM 51.1333 -101.9000 104° East 510 587 33,000  Level Winnipeg Center
Thu 12:47:22 AM 51.0833 -101.7167 113° Southeast 510 587 33,000  Level Winnipeg Center
Thu 12:48:22 AM 51.0333 -101.4833 109° East 510 587 33,000  Level Winnipeg Center
Thu 12:49:22 AM 50.9833 -101.2667 110° East 510 587 33,000  Level Winnipeg Center
Thu 12:50:22 AM 50.9500 -101.0500 104° East 520 598 33,000  Level Winnipeg Center
Thu 12:51:22 AM 50.8833 -100.8333 116° Southeast 520 598 33,000  Level Winnipeg Center
Thu 12:52:22 AM 50.8500 -100.6167 104° East 520 598 33,000  Level Winnipeg Center
Thu 12:53:22 AM 50.8000 -100.4167 112° Southeast 520 598 33,000  Level Winnipeg Center
Thu 12:54:22 AM 50.7500 -100.2000 110° East 520 598 33,000  Level Winnipeg Center
Thu 12:55:22 AM 50.7000 -99.9833 110° East 520 598 33,000  Level Winnipeg Center
Thu 12:56:22 AM 50.6500 -99.7667 110° East 520 598 33,000  Level Winnipeg Center
Thu 12:57:22 AM 50.6000 -99.5500 110° East 520 598 33,000  Level Winnipeg Center
Thu 12:58:22 AM 50.5500 -99.3333 110° East 520 598 33,000 -750 Level Winnipeg Center
Thu 12:59:22 AM 50.5000 -99.1167 110° East 520 598 31,500 -2,050 Descending Winnipeg Center
Thu 01:00:22 AM 50.4500 -98.9167 111° Southeast 510 587 28,900 -2,650 Descending Winnipeg Center
Thu 01:01:22 AM 50.4000 -98.7167 111° Southeast 490 564 26,200 -2,900 Descending Winnipeg Center
Thu 01:02:22 AM 50.3500 -98.5167 111° Southeast 470 541 23,100 -2,900 Descending Winnipeg Center
Thu 01:03:22 AM 50.3167 -98.3500 107° East 450 518 20,400 -3,100 Descending Winnipeg Center
Thu 01:04:22 AM 50.2667 -98.1667 113° Southeast 440 506 16,900 -3,450 Descending Winnipeg Center
Thu 01:05:22 AM 50.2500 -97.9833 98° East 430 495 13,500 -2,600 Descending Winnipeg Center
Thu 01:06:22 AM 50.2000 -97.8333 117° Southeast 400 460 11,700 -1,400 Descending Winnipeg Center
Thu 01:07:22 AM 50.1667 -97.6667 107° East 340 391 10,700 -1,350 Descending Winnipeg Center
Thu 01:08:22 AM 50.1333 -97.5667 117° Southeast 280 322 9,000 -2,550 Descending Winnipeg Center
Thu 01:09:22 AM 50.1000 -97.4667 117° Southeast 270 311 5,600 -2,600 Descending Winnipeg Center
Thu 01:10:22 AM 50.0833 -97.3333 101° East 290 334 3,800 -1,100 Descending Winnipeg Center
Thu 01:11:22 AM 50.0500 -97.2333 117° Southeast 250 288 3,400 -400 Descending Winnipeg Center
Thu 01:12:22 AM 50.0000 -97.2000 157° South 190 219 3,000 -850 Descending Winnipeg Center
Thu 01:13:22 AM 49.9500 -97.2333 203° Southwest 170 196 1,700 -1,100 Descending Winnipeg Center
Thu 01:14:22 AM 49.9167 -97.2333 180° South 140 161 800 -900 Descending Winnipeg Center

Login

Don't have an account? Register now (free) for customized features, flight alerts, and more!